createdAt,value
2018-06-04T00:03:03.545Z,10.30
2018-06-04T00:07:06.996Z,9.90
2018-06-04T00:11:10.427Z,9.33
2018-06-04T00:15:13.895Z,9.43
2018-06-04T00:19:17.364Z,9.83
2018-06-04T00:23:20.860Z,9.37
2018-06-04T00:27:30.815Z,9.47
2018-06-04T00:31:34.230Z,8.97
2018-06-04T00:35:37.655Z,9.30
2018-06-04T00:39:41.090Z,9.83
2018-06-04T00:43:44.498Z,9.40
2018-06-04T00:47:47.948Z,9.70
2018-06-04T00:51:51.430Z,9.43
2018-06-04T00:56:06.188Z,10.03
2018-06-04T01:00:09.630Z,9.70
2018-06-04T01:04:13.075Z,10.47
2018-06-04T01:08:16.504Z,9.70
2018-06-04T01:12:19.961Z,9.77
2018-06-04T01:16:23.360Z,10.17
2018-06-04T01:20:26.796Z,10.13
2018-06-04T01:24:30.233Z,10.10
2018-06-04T01:28:33.673Z,9.63
2018-06-04T01:32:37.132Z,10.93
2018-06-04T01:36:40.577Z,10.43
2018-06-04T01:40:44.003Z,10.03
2018-06-04T01:44:47.411Z,10.60
2018-06-04T01:48:50.839Z,10.37
2018-06-04T01:52:54.325Z,10.87
2018-06-04T01:56:57.718Z,10.47
2018-06-04T02:01:01.163Z,10.73
2018-06-04T02:05:04.642Z,9.87
2018-06-04T02:09:08.074Z,10.07
2018-06-04T02:13:11.556Z,9.97
2018-06-04T02:17:15.017Z,10.17
2018-06-04T02:21:18.434Z,9.67
2018-06-04T02:25:21.873Z,10.03
2018-06-04T02:29:25.345Z,11.07
2018-06-04T02:33:28.798Z,11.03
2018-06-04T02:37:32.258Z,9.97
2018-06-04T02:41:35.711Z,10.30
2018-06-04T02:45:39.157Z,10.43
2018-06-04T02:49:42.586Z,10.50
2018-06-04T02:53:46.040Z,10.33
2018-06-04T02:57:49.479Z,10.73
2018-06-04T03:01:52.923Z,10.70
2018-06-04T03:05:56.348Z,10.93
2018-06-04T03:09:59.793Z,9.77
2018-06-04T03:14:03.719Z,10.80
2018-06-04T03:18:07.135Z,11.23
2018-06-04T03:22:10.572Z,10.73
2018-06-04T03:26:13.988Z,10.83
2018-06-04T03:30:17.439Z,10.13
2018-06-04T03:34:20.913Z,11.30
2018-06-04T03:38:24.336Z,11.03
2018-06-04T03:42:28.646Z,10.53
2018-06-04T03:46:32.098Z,11.00
2018-06-04T03:50:35.562Z,10.97
2018-06-04T03:54:38.999Z,11.67
2018-06-04T03:58:42.457Z,11.57
2018-06-04T04:02:45.910Z,11.30
2018-06-04T04:06:49.312Z,11.70
2018-06-04T04:10:52.792Z,12.50
2018-06-04T04:14:56.227Z,11.90
2018-06-04T04:18:59.726Z,11.53
2018-06-04T04:23:03.152Z,11.20
2018-06-04T04:27:06.614Z,12.20
2018-06-04T04:31:10.036Z,14.03
2018-06-04T04:35:13.495Z,14.10
2018-06-04T04:39:16.959Z,14.53
2018-06-04T04:43:20.435Z,14.07
2018-06-04T04:47:23.851Z,15.33
2018-06-04T04:51:27.306Z,16.13
2018-06-04T04:55:30.749Z,15.97
2018-06-04T04:59:34.210Z,15.00
2018-06-04T05:03:37.646Z,16.83
2018-06-04T05:07:41.108Z,17.90
2018-06-04T05:11:44.566Z,17.60
2018-06-04T05:15:48.008Z,17.60
2018-06-04T05:19:51.488Z,17.13
2018-06-04T05:23:54.950Z,17.33
2018-06-04T05:27:58.355Z,17.00
2018-06-04T05:32:01.798Z,16.47
2018-06-04T05:36:05.298Z,16.23
2018-06-04T05:40:08.759Z,17.05
2018-06-04T05:44:12.187Z,16.13
2018-06-04T05:48:15.622Z,15.25
2018-06-04T05:52:19.025Z,15.50
2018-06-04T05:56:22.471Z,15.50
2018-06-04T06:00:25.878Z,14.33
2018-06-04T06:04:29.325Z,13.68
2018-06-04T06:08:32.747Z,14.87
2018-06-04T06:12:36.205Z,13.28
2018-06-04T06:16:39.676Z,13.62
2018-06-04T06:20:43.113Z,12.13
2018-06-04T06:24:46.517Z,12.88
2018-06-04T06:28:49.956Z,12.58
2018-06-04T06:32:53.390Z,13.15
2018-06-04T06:36:56.833Z,12.10
2018-06-04T06:41:00.281Z,12.13
2018-06-04T06:45:03.750Z,13.35
2018-06-04T06:49:07.204Z,12.65
2018-06-04T06:53:10.603Z,12.53
2018-06-04T06:57:14.131Z,11.53
2018-06-04T07:01:17.587Z,11.00
2018-06-04T07:05:21.051Z,11.12
2018-06-04T07:09:24.472Z,12.68
2018-06-04T07:13:27.907Z,10.78
2018-06-04T07:17:31.363Z,11.00
2018-06-04T07:21:34.817Z,9.38
2018-06-04T07:25:38.272Z,8.63
2018-06-04T07:29:41.666Z,8.78
2018-06-04T07:33:45.091Z,8.58
2018-06-04T07:37:48.519Z,8.35
2018-06-04T07:41:51.950Z,8.28
2018-06-04T07:45:55.375Z,8.48
2018-06-04T07:49:58.893Z,9.40
2018-06-04T07:54:02.272Z,8.90
2018-06-04T07:58:05.726Z,8.83
2018-06-04T08:02:09.131Z,9.25
2018-06-04T08:06:12.678Z,8.90
2018-06-04T08:10:16.126Z,8.80
2018-06-04T08:14:19.514Z,8.40
2018-06-04T08:18:22.962Z,9.00
2018-06-04T08:22:26.383Z,11.03
2018-06-04T08:26:29.839Z,9.28
2018-06-04T08:30:33.314Z,8.63
2018-06-04T08:34:36.711Z,8.58
2018-06-04T08:38:40.202Z,9.15
2018-06-04T08:42:43.637Z,8.45
2018-06-04T08:46:47.043Z,8.65
2018-06-04T08:50:50.485Z,9.40
2018-06-04T08:54:53.938Z,7.78
2018-06-04T08:58:57.355Z,8.23
2018-06-04T09:03:00.792Z,7.85
2018-06-04T09:07:04.207Z,8.10
2018-06-04T09:11:07.734Z,7.90
2018-06-04T09:15:11.168Z,7.72
2018-06-04T09:19:14.609Z,7.75
2018-06-04T09:23:18.049Z,8.35
2018-06-04T09:27:21.493Z,8.30
2018-06-04T09:31:24.936Z,8.13
2018-06-04T09:35:28.370Z,6.42
2018-06-04T09:39:31.796Z,6.60
2018-06-04T09:43:35.198Z,7.00
2018-06-04T09:47:38.659Z,6.65
2018-06-04T09:51:42.068Z,6.72
2018-06-04T09:55:45.499Z,6.80
2018-06-04T09:59:48.893Z,6.50
2018-06-04T10:03:52.304Z,6.10
2018-06-04T10:07:55.726Z,6.10
2018-06-04T10:11:59.172Z,6.42
2018-06-04T10:16:02.617Z,6.15
2018-06-04T10:20:06.048Z,6.10
2018-06-04T10:24:09.604Z,6.35
2018-06-04T10:28:13.059Z,5.85
2018-06-04T10:32:16.499Z,6.05
2018-06-04T10:36:19.923Z,6.30
2018-06-04T10:40:23.360Z,6.25
2018-06-04T10:44:26.782Z,6.95
2018-06-04T10:48:30.180Z,6.10
2018-06-04T10:52:33.603Z,6.35
2018-06-04T10:56:37.031Z,6.53
2018-06-04T11:00:40.464Z,6.25
2018-06-04T11:04:43.895Z,6.53
2018-06-04T11:08:47.319Z,6.33
2018-06-04T11:12:50.760Z,6.17
2018-06-04T11:16:54.190Z,6.30
2018-06-04T11:20:57.624Z,6.00
2018-06-04T11:25:01.052Z,6.10
2018-06-04T11:29:04.822Z,5.60
2018-06-04T11:33:08.253Z,6.00
2018-06-04T11:37:11.691Z,5.95
2018-06-04T11:41:15.116Z,6.17
2018-06-04T11:45:18.563Z,6.17
2018-06-04T11:49:22.003Z,5.78
2018-06-04T11:53:25.428Z,6.00
2018-06-04T11:57:28.877Z,5.33
2018-06-04T12:01:32.320Z,5.60
2018-06-04T12:05:35.743Z,5.50
2018-06-04T12:09:39.160Z,5.72
2018-06-04T12:13:42.608Z,5.58
2018-06-04T12:17:47.024Z,5.47
2018-06-04T12:21:50.483Z,5.30
2018-06-04T12:25:53.910Z,5.60
2018-06-04T12:29:57.359Z,5.50
2018-06-04T12:34:00.793Z,5.78
2018-06-04T12:38:04.234Z,5.70
2018-06-04T12:42:07.654Z,6.58
2018-06-04T12:46:12.190Z,5.83
2018-06-04T12:50:15.627Z,5.58
2018-06-04T12:54:19.030Z,5.92
2018-06-04T12:58:22.462Z,6.05
2018-06-04T13:02:25.878Z,5.65
2018-06-04T13:06:29.286Z,5.47
2018-06-04T13:10:32.783Z,5.47
2018-06-04T13:14:36.188Z,5.90
2018-06-04T13:18:39.621Z,5.60
2018-06-04T13:22:43.039Z,5.62
2018-06-04T13:26:46.479Z,5.50
2018-06-04T13:30:49.931Z,5.20
2018-06-04T13:34:53.351Z,6.42
2018-06-04T13:38:56.787Z,5.83
2018-06-04T13:43:00.209Z,5.92
2018-06-04T13:47:03.644Z,5.25
2018-06-04T13:51:07.089Z,6.55
2018-06-04T13:55:10.534Z,6.30
2018-06-04T13:59:13.987Z,5.62
2018-06-04T14:03:17.390Z,6.10
2018-06-04T14:07:20.810Z,5.78
2018-06-04T14:11:24.288Z,6.00
2018-06-04T14:15:27.689Z,5.60
2018-06-04T14:19:31.134Z,5.87
2018-06-04T14:23:34.538Z,6.40
2018-06-04T14:27:37.987Z,6.58
2018-06-04T14:31:41.423Z,6.87
2018-06-04T14:35:44.851Z,7.12
2018-06-04T14:39:48.325Z,6.75
2018-06-04T14:43:51.766Z,8.08
2018-06-04T14:47:55.187Z,6.97
2018-06-04T14:51:58.635Z,7.20
2018-06-04T14:56:02.104Z,7.37
2018-06-04T15:00:05.596Z,7.47
2018-06-04T15:04:09.023Z,7.12
2018-06-04T15:08:12.426Z,7.10
2018-06-04T15:12:15.833Z,6.80
2018-06-04T15:16:19.282Z,6.95
2018-06-04T15:20:22.795Z,6.85
2018-06-04T15:24:26.179Z,6.60
2018-06-04T15:28:29.610Z,7.03
2018-06-04T15:32:33.060Z,7.28
2018-06-04T15:36:36.496Z,6.67
2018-06-04T15:40:39.950Z,6.75
2018-06-04T15:44:43.342Z,6.67
2018-06-04T15:48:46.780Z,7.00
2018-06-04T15:52:50.206Z,6.40
2018-06-04T15:56:53.636Z,7.03
2018-06-04T16:00:58.219Z,6.60
2018-06-04T16:05:01.643Z,6.78
2018-06-04T16:09:07.207Z,5.83
2018-06-04T16:13:10.634Z,6.55
2018-06-04T16:17:14.061Z,6.53
2018-06-04T16:21:17.515Z,6.72
2018-06-04T16:25:20.938Z,6.58
2018-06-04T16:29:24.397Z,6.67
2018-06-04T16:33:27.850Z,7.05
2018-06-04T16:37:31.383Z,6.80
2018-06-04T16:41:34.723Z,6.70
2018-06-04T16:45:38.146Z,6.33
2018-06-04T16:49:41.559Z,6.67
2018-06-04T16:53:44.966Z,6.12
2018-06-04T16:57:48.386Z,6.53
2018-06-04T17:01:51.903Z,6.22
2018-06-04T17:05:55.339Z,6.90
2018-06-04T17:09:58.742Z,6.30
2018-06-04T17:14:02.187Z,6.22
2018-06-04T17:18:05.583Z,6.53
2018-06-04T17:22:09.007Z,6.80
2018-06-04T17:26:12.394Z,6.53
2018-06-04T17:30:15.816Z,6.08
2018-06-04T17:34:19.229Z,6.58
2018-06-04T17:38:22.632Z,6.15
2018-06-04T17:42:26.077Z,6.30
2018-06-04T17:46:29.530Z,6.33
2018-06-04T17:50:32.971Z,6.75
2018-06-04T17:54:36.440Z,6.62
2018-06-04T17:58:39.854Z,6.22
2018-06-04T18:02:43.297Z,6.65
2018-06-04T18:06:46.784Z,6.50
2018-06-04T18:10:50.197Z,6.35
2018-06-04T18:14:53.634Z,6.70
2018-06-04T18:18:57.061Z,6.35
2018-06-04T18:23:00.528Z,6.58
2018-06-04T18:27:03.933Z,6.87
2018-06-04T18:31:07.770Z,6.92
2018-06-04T18:35:11.192Z,7.00
2018-06-04T18:39:14.639Z,6.50
2018-06-04T18:43:18.094Z,6.90
2018-06-04T18:47:21.502Z,7.00
2018-06-04T18:51:24.931Z,7.28
2018-06-04T18:55:28.359Z,7.40
2018-06-04T18:59:31.857Z,7.15
2018-06-04T19:03:35.290Z,7.40
2018-06-04T19:07:38.698Z,7.37
2018-06-04T19:11:42.144Z,7.17
2018-06-04T19:15:45.571Z,7.12
2018-06-04T19:19:48.986Z,7.45
2018-06-04T19:23:52.530Z,7.45
2018-06-04T19:27:56.000Z,8.75
2018-06-04T19:31:59.493Z,8.68
2018-06-04T19:36:02.863Z,8.10
2018-06-04T19:40:06.299Z,8.53
2018-06-04T19:44:09.804Z,8.95
2018-06-04T19:48:13.261Z,8.45
2018-06-04T19:52:16.671Z,8.30
2018-06-04T19:56:20.120Z,8.63
2018-06-04T20:00:23.565Z,9.03
2018-06-04T20:04:27.299Z,7.87
2018-06-04T20:08:30.746Z,9.00
2018-06-04T20:12:34.195Z,8.83
2018-06-04T20:16:37.618Z,8.65
2018-06-04T20:20:41.064Z,8.68
2018-06-04T20:24:44.500Z,8.60
2018-06-04T20:28:47.939Z,8.78
2018-06-04T20:32:51.348Z,8.48
2018-06-04T20:36:54.791Z,8.95
2018-06-04T20:40:58.193Z,8.98
2018-06-04T20:45:01.649Z,9.28
2018-06-04T20:49:05.109Z,9.50
2018-06-04T20:53:08.491Z,8.83
2018-06-04T20:57:11.905Z,9.18
2018-06-04T21:01:15.334Z,8.23
2018-06-04T21:05:18.763Z,9.18
2018-06-04T21:09:22.222Z,9.05
2018-06-04T21:13:25.654Z,9.15
2018-06-04T21:17:29.082Z,9.60
2018-06-04T21:21:32.522Z,8.90
2018-06-04T21:25:35.972Z,9.73
2018-06-04T21:29:39.409Z,9.13
2018-06-04T21:33:42.850Z,8.98
2018-06-04T21:37:46.299Z,9.13
2018-06-04T21:41:49.701Z,8.13
2018-06-04T21:45:53.178Z,8.30
2018-06-04T21:49:56.595Z,9.70
2018-06-04T21:54:00.020Z,9.10
2018-06-04T21:58:03.429Z,8.60
2018-06-04T22:02:06.911Z,8.43
2018-06-04T22:06:11.370Z,9.05
2018-06-04T22:10:14.812Z,9.50
2018-06-04T22:14:18.257Z,8.73
2018-06-04T22:18:21.661Z,9.60
2018-06-04T22:22:25.086Z,9.37
2018-06-04T22:26:28.524Z,9.33
2018-06-04T22:30:31.942Z,9.53
2018-06-04T22:34:35.403Z,9.77
2018-06-04T22:38:38.854Z,9.60
2018-06-04T22:42:42.287Z,10.43
2018-06-04T22:46:45.729Z,9.93
2018-06-04T22:50:49.168Z,10.63
2018-06-04T22:54:52.642Z,9.70
2018-06-04T22:58:56.017Z,9.60
2018-06-04T23:02:59.457Z,10.47
2018-06-04T23:07:02.848Z,10.60
2018-06-04T23:11:06.371Z,9.93
2018-06-04T23:15:09.787Z,10.20
2018-06-04T23:19:13.228Z,10.37
2018-06-04T23:23:16.691Z,10.57
2018-06-04T23:27:20.159Z,9.90
2018-06-04T23:31:23.605Z,10.60
2018-06-04T23:35:27.094Z,11.03
2018-06-04T23:39:30.498Z,10.40
2018-06-04T23:43:33.930Z,10.50
2018-06-04T23:47:37.387Z,10.30
2018-06-04T23:51:40.828Z,10.83
2018-06-04T23:55:44.281Z,10.77
2018-06-04T23:59:47.713Z,11.43
